createdAt,value
2018-08-31T00:02:12.846Z,91.68
2018-08-31T00:05:40.800Z,91.89
2018-08-31T00:08:21.295Z,92.09
2018-08-31T00:10:59.600Z,92.42
2018-08-31T00:13:28.142Z,92.49
2018-08-31T00:15:56.625Z,92.31
2018-08-31T00:18:25.349Z,92.40
2018-08-31T00:20:53.901Z,92.66
2018-08-31T00:23:32.372Z,92.19
2018-08-31T00:26:14.551Z,92.18
2018-08-31T00:29:56.050Z,92.06
2018-08-31T00:33:04.012Z,91.87
2018-08-31T00:36:02.453Z,92.32
2018-08-31T00:38:45.804Z,92.29
2018-08-31T00:42:25.396Z,92.77
2018-08-31T00:45:05.039Z,93.32
2018-08-31T00:47:33.496Z,93.18
2018-08-31T00:50:04.251Z,93.24
2018-08-31T00:52:32.679Z,92.81
2018-08-31T00:55:01.297Z,93.29
2018-08-31T00:57:29.742Z,93.15
2018-08-31T00:59:58.216Z,93.43
2018-08-31T01:02:26.778Z,93.20
2018-08-31T01:04:55.356Z,93.07
2018-08-31T01:07:23.811Z,93.10
2018-08-31T01:09:52.294Z,93.21
2018-08-31T01:12:20.797Z,92.78
2018-08-31T01:14:49.293Z,93.23
2018-08-31T01:18:01.753Z,92.90
2018-08-31T01:20:30.571Z,93.78
2018-08-31T01:22:59.052Z,94.37
2018-08-31T01:25:34.092Z,94.17
2018-08-31T01:28:02.981Z,94.15
2018-08-31T01:30:31.497Z,94.18
2018-08-31T01:32:59.947Z,94.56
2018-08-31T01:35:28.512Z,94.11
2018-08-31T01:37:58.115Z,94.30
2018-08-31T01:40:26.612Z,94.14
2018-08-31T01:42:55.054Z,93.97
2018-08-31T01:45:23.627Z,93.83
2018-08-31T01:47:52.129Z,93.89
2018-08-31T01:50:20.597Z,93.89
2018-08-31T01:52:49.289Z,94.27
2018-08-31T01:55:17.792Z,93.90
2018-08-31T01:57:46.314Z,93.99
2018-08-31T02:00:14.786Z,94.08
2018-08-31T02:02:43.261Z,94.61
2018-08-31T02:05:11.783Z,94.58
2018-08-31T02:07:40.327Z,94.61
2018-08-31T02:10:08.821Z,94.37
2018-08-31T02:12:37.298Z,94.08
2018-08-31T02:15:05.797Z,93.99
2018-08-31T02:17:34.352Z,94.84
2018-08-31T02:20:02.840Z,94.52
2018-08-31T02:22:31.325Z,94.27
2018-08-31T02:24:59.797Z,94.18
2018-08-31T02:27:28.372Z,93.90
2018-08-31T02:29:56.953Z,94.20
2018-08-31T02:33:10.678Z,94.34
2018-08-31T02:35:39.226Z,93.66
2018-08-31T02:38:07.813Z,93.70
2018-08-31T02:40:36.227Z,94.21
2018-08-31T02:43:04.951Z,94.33
2018-08-31T02:45:33.620Z,93.94
2018-08-31T02:48:02.130Z,94.25
2018-08-31T02:50:30.582Z,94.08
2018-08-31T02:52:59.022Z,94.63
2018-08-31T02:55:27.559Z,94.32
2018-08-31T02:57:56.047Z,94.48
2018-08-31T03:00:32.991Z,93.97
2018-08-31T03:03:01.490Z,93.91
2018-08-31T03:05:29.972Z,94.02
2018-08-31T03:07:58.465Z,93.72
2018-08-31T03:10:26.951Z,94.17
2018-08-31T03:12:55.425Z,93.96
2018-08-31T03:15:24.069Z,94.43
2018-08-31T03:17:52.499Z,94.18
2018-08-31T03:20:21.178Z,94.00
2018-08-31T03:22:49.636Z,93.98
2018-08-31T03:25:18.187Z,94.01
2018-08-31T03:27:46.632Z,94.12
2018-08-31T03:30:15.322Z,94.71
2018-08-31T03:32:47.073Z,94.58
2018-08-31T03:35:15.597Z,94.71
2018-08-31T03:37:44.157Z,94.71
2018-08-31T03:40:12.725Z,94.57
2018-08-31T03:42:41.238Z,94.88
2018-08-31T03:45:09.802Z,95.02
2018-08-31T03:47:38.362Z,95.18
2018-08-31T03:50:07.111Z,95.13
2018-08-31T03:52:35.639Z,95.17
2018-08-31T03:55:04.216Z,95.41
2018-08-31T03:57:32.756Z,95.15
2018-08-31T04:00:01.321Z,95.84
2018-08-31T04:02:30.994Z,95.82
2018-08-31T04:04:59.487Z,95.29
2018-08-31T04:07:27.997Z,95.33
2018-08-31T04:09:56.553Z,95.68
2018-08-31T04:12:25.132Z,95.65
2018-08-31T04:14:53.767Z,95.86
2018-08-31T04:17:22.297Z,96.25
2018-08-31T04:19:50.774Z,96.25
2018-08-31T04:22:19.309Z,96.28
2018-08-31T04:24:47.842Z,96.41
2018-08-31T04:27:16.378Z,96.43
2018-08-31T04:29:44.905Z,96.30
2018-08-31T04:32:13.478Z,96.12
2018-08-31T04:34:41.989Z,96.59
2018-08-31T04:37:24.863Z,96.23
2018-08-31T04:39:53.293Z,95.87
2018-08-31T04:42:21.748Z,95.71
2018-08-31T04:44:50.275Z,96.04
2018-08-31T04:47:19.033Z,95.85
2018-08-31T04:49:47.511Z,95.32
2018-08-31T04:52:16.034Z,94.98
2018-08-31T04:54:44.581Z,95.13
2018-08-31T04:57:13.265Z,95.43
2018-08-31T04:59:42.166Z,95.13
2018-08-31T05:02:10.788Z,95.08
2018-08-31T05:04:39.468Z,95.67
2018-08-31T05:07:08.022Z,96.20
2018-08-31T05:09:36.527Z,95.40
2018-08-31T05:12:05.276Z,95.58
2018-08-31T05:14:33.875Z,95.96
2018-08-31T05:17:02.418Z,95.69
2018-08-31T05:19:32.173Z,95.32
2018-08-31T05:22:00.743Z,95.03
2018-08-31T05:24:31.257Z,95.85
2018-08-31T05:26:59.752Z,95.41
2018-08-31T05:29:28.280Z,95.91
2018-08-31T05:31:56.712Z,95.35
2018-08-31T05:34:25.209Z,95.39
2018-08-31T05:36:54.103Z,95.77
2018-08-31T05:39:22.563Z,95.56
2018-08-31T05:41:51.207Z,96.22
2018-08-31T05:44:19.744Z,95.95
2018-08-31T05:46:48.232Z,96.24
2018-08-31T05:49:17.027Z,96.44
2018-08-31T05:51:45.660Z,96.58
2018-08-31T05:54:14.200Z,96.88
2018-08-31T05:56:42.862Z,97.08
2018-08-31T05:59:11.382Z,96.78
2018-08-31T06:01:39.845Z,97.35
2018-08-31T06:04:08.511Z,97.21
2018-08-31T06:06:40.231Z,97.14
2018-08-31T06:09:09.792Z,96.84
2018-08-31T06:11:38.479Z,96.73
2018-08-31T06:14:07.305Z,97.35
2018-08-31T06:16:37.066Z,96.98
2018-08-31T06:19:05.760Z,96.84
2018-08-31T06:21:34.391Z,96.25
2018-08-31T06:24:02.855Z,96.39
2018-08-31T06:26:31.605Z,95.71
2018-08-31T06:29:00.091Z,96.11
2018-08-31T06:31:28.609Z,96.03
2018-08-31T06:33:57.109Z,95.58
2018-08-31T06:36:25.526Z,95.26
2018-08-31T06:38:54.952Z,94.73
2018-08-31T06:41:23.406Z,94.32
2018-08-31T06:43:51.918Z,94.56
2018-08-31T06:46:20.396Z,94.47
2018-08-31T06:48:48.979Z,94.42
2018-08-31T06:51:17.632Z,93.92
2018-08-31T06:53:46.147Z,93.62
2018-08-31T06:56:14.718Z,92.38
2018-08-31T06:58:43.306Z,92.20
2018-08-31T07:01:11.792Z,91.78
2018-08-31T07:03:40.541Z,91.74
2018-08-31T07:06:09.112Z,91.43
2018-08-31T07:08:37.755Z,91.11
2018-08-31T07:11:06.281Z,90.63
2018-08-31T07:13:34.828Z,89.80
2018-08-31T07:16:03.680Z,88.83
2018-08-31T07:18:32.142Z,88.72
2018-08-31T07:21:00.680Z,88.50
2018-08-31T07:23:29.158Z,87.95
2018-08-31T07:25:57.625Z,87.40
2018-08-31T07:28:31.344Z,87.43
2018-08-31T07:30:59.806Z,86.49
2018-08-31T07:33:28.351Z,86.24
2018-08-31T07:35:56.889Z,85.53
2018-08-31T07:38:25.473Z,85.05
2018-08-31T07:40:54.241Z,84.36
2018-08-31T07:43:22.709Z,83.94
2018-08-31T07:45:51.205Z,83.86
2018-08-31T07:48:19.716Z,83.12
2018-08-31T07:50:48.292Z,83.07
2018-08-31T07:53:17.278Z,82.33
2018-08-31T07:55:45.865Z,82.29
2018-08-31T07:58:14.396Z,81.39
2018-08-31T08:00:42.939Z,80.57
2018-08-31T08:03:11.388Z,79.81
2018-08-31T08:06:03.642Z,79.08
2018-08-31T08:08:32.199Z,79.12
2018-08-31T08:11:00.727Z,78.67
2018-08-31T08:13:29.358Z,78.35
2018-08-31T08:15:57.898Z,77.46
2018-08-31T08:18:26.373Z,77.51
2018-08-31T08:20:54.947Z,77.72
2018-08-31T08:23:23.583Z,77.40
2018-08-31T08:25:52.021Z,76.99
2018-08-31T08:28:20.572Z,76.67
2018-08-31T08:30:49.088Z,75.90
2018-08-31T08:33:17.535Z,75.49
2018-08-31T08:35:46.197Z,75.12
2018-08-31T08:38:14.778Z,74.05
2018-08-31T08:40:43.370Z,74.26
2018-08-31T08:43:12.039Z,73.88
2018-08-31T08:45:40.610Z,73.41
2018-08-31T08:48:09.202Z,73.36
2018-08-31T08:50:37.765Z,71.97
2018-08-31T08:53:06.218Z,71.29
2018-08-31T08:55:34.755Z,70.91
2018-08-31T08:58:04.269Z,70.14
2018-08-31T09:00:32.735Z,69.75
2018-08-31T09:03:01.314Z,69.42
2018-08-31T09:05:30.133Z,69.20
2018-08-31T09:07:58.674Z,68.56
2018-08-31T09:10:27.868Z,67.56
2018-08-31T09:12:56.411Z,67.57
2018-08-31T09:15:24.954Z,66.07
2018-08-31T09:17:53.942Z,66.13
2018-08-31T09:20:22.781Z,65.19
2018-08-31T09:22:51.415Z,65.15
2018-08-31T09:25:20.297Z,63.74
2018-08-31T09:27:48.766Z,64.18
2018-08-31T09:30:22.381Z,62.72
2018-08-31T09:32:50.873Z,61.35
2018-08-31T09:35:19.369Z,61.90
2018-08-31T09:37:48.076Z,61.05
2018-08-31T09:40:16.713Z,60.53
2018-08-31T09:42:45.202Z,60.73
2018-08-31T09:45:13.702Z,61.18
2018-08-31T09:47:42.270Z,61.20
2018-08-31T09:50:10.857Z,61.17
2018-08-31T09:52:39.348Z,60.27
2018-08-31T09:55:07.902Z,57.95
2018-08-31T09:57:39.493Z,57.17
2018-08-31T10:00:08.681Z,58.09
2018-08-31T10:02:38.033Z,59.59
2018-08-31T10:05:07.876Z,59.32
2018-08-31T10:07:36.458Z,59.79
2018-08-31T10:10:05.094Z,58.77
2018-08-31T10:12:33.695Z,58.30
2018-08-31T10:15:02.239Z,58.17
2018-08-31T10:17:31.153Z,57.43
2018-08-31T10:19:59.593Z,57.44
2018-08-31T10:22:28.105Z,56.47
2018-08-31T10:24:56.788Z,55.12
2018-08-31T10:27:25.260Z,54.86
2018-08-31T10:29:53.820Z,55.62
2018-08-31T10:32:22.313Z,56.00
2018-08-31T10:34:50.777Z,55.47
2018-08-31T10:37:19.283Z,56.30
2018-08-31T10:39:47.844Z,56.82
2018-08-31T10:42:20.131Z,56.93
2018-08-31T10:44:48.650Z,57.04
2018-08-31T10:47:17.177Z,55.46
2018-08-31T10:49:45.673Z,54.53
2018-08-31T10:52:14.201Z,54.14
2018-08-31T10:54:42.710Z,54.77
2018-08-31T10:57:11.155Z,54.80
2018-08-31T10:59:39.735Z,53.54
2018-08-31T11:02:08.183Z,53.18
2018-08-31T11:04:36.662Z,52.69
2018-08-31T11:07:05.138Z,53.48
2018-08-31T11:09:33.625Z,54.28
2018-08-31T11:12:02.114Z,55.61
2018-08-31T11:14:55.180Z,55.85
2018-08-31T11:17:23.749Z,56.89
2018-08-31T11:19:52.245Z,56.93
2018-08-31T11:22:42.124Z,57.03
2018-08-31T11:25:10.703Z,58.25
2018-08-31T11:27:39.262Z,58.34
2018-08-31T11:30:09.143Z,57.84
2018-08-31T11:32:38.039Z,58.17
2018-08-31T11:35:06.763Z,57.27
2018-08-31T11:38:02.863Z,56.79
2018-08-31T11:40:31.395Z,56.22
2018-08-31T11:43:00.036Z,54.65
2018-08-31T11:45:28.558Z,53.63
2018-08-31T11:47:57.074Z,54.04
2018-08-31T11:50:25.726Z,53.07
2018-08-31T11:52:54.238Z,54.00
2018-08-31T11:55:22.954Z,54.01
2018-08-31T11:57:55.571Z,54.03
2018-08-31T12:00:24.165Z,54.37
2018-08-31T12:02:52.633Z,54.94
2018-08-31T12:05:21.096Z,54.79
2018-08-31T12:07:49.710Z,54.50
2018-08-31T12:10:18.174Z,54.90
2018-08-31T12:12:46.662Z,55.18
2018-08-31T12:15:15.160Z,53.96
2018-08-31T12:17:43.910Z,54.20
2018-08-31T12:20:12.381Z,54.21
2018-08-31T12:22:41.912Z,54.52
2018-08-31T12:25:10.407Z,53.79
2018-08-31T12:27:39.741Z,53.77
2018-08-31T12:30:08.425Z,52.85
2018-08-31T12:32:36.843Z,52.71
2018-08-31T12:35:05.458Z,51.68
2018-08-31T12:37:33.919Z,49.75
2018-08-31T12:40:02.524Z,50.04
2018-08-31T12:42:31.005Z,48.75
2018-08-31T12:44:59.627Z,47.84
2018-08-31T12:47:28.183Z,46.85
2018-08-31T12:49:56.746Z,45.20
2018-08-31T12:52:25.300Z,44.00
2018-08-31T12:54:53.758Z,43.87
2018-08-31T12:57:22.304Z,45.14
2018-08-31T12:59:56.043Z,46.18
2018-08-31T13:02:24.452Z,47.62
2018-08-31T13:04:52.996Z,47.52
2018-08-31T13:07:21.588Z,49.19
2018-08-31T13:09:50.062Z,49.08
2018-08-31T13:12:18.628Z,49.05
2018-08-31T13:14:47.107Z,49.15
2018-08-31T13:17:15.704Z,49.81
2018-08-31T13:19:44.319Z,49.65
2018-08-31T13:22:13.011Z,50.76
2018-08-31T13:24:41.444Z,49.93
2018-08-31T13:27:10.109Z,50.73
2018-08-31T13:29:38.604Z,51.75
2018-08-31T13:32:07.189Z,51.39
2018-08-31T13:34:35.759Z,51.15
2018-08-31T13:37:04.380Z,50.83
2018-08-31T13:39:34.180Z,51.66
2018-08-31T13:42:02.895Z,51.18
2018-08-31T13:44:31.457Z,51.20
2018-08-31T13:47:00.148Z,50.95
2018-08-31T13:49:28.708Z,51.13
2018-08-31T13:51:57.381Z,50.59
2018-08-31T13:54:25.881Z,50.29
2018-08-31T13:56:54.350Z,50.27
2018-08-31T13:59:22.834Z,48.58
2018-08-31T14:01:51.338Z,48.09
2018-08-31T14:04:35.292Z,47.07
2018-08-31T14:07:23.476Z,46.13
2018-08-31T14:09:52.005Z,45.28
2018-08-31T14:12:20.592Z,44.23
2018-08-31T14:14:49.060Z,43.86
2018-08-31T14:17:44.703Z,43.71
2018-08-31T14:20:13.277Z,44.27
2018-08-31T14:22:41.876Z,44.04
2018-08-31T14:25:10.437Z,44.31
2018-08-31T14:27:39.005Z,43.14
2018-08-31T14:30:07.937Z,43.46
2018-08-31T14:32:36.585Z,43.23
2018-08-31T14:35:05.075Z,43.08
2018-08-31T14:37:33.658Z,43.28
2018-08-31T14:40:02.125Z,43.30
2018-08-31T14:42:31.232Z,42.61
2018-08-31T14:44:59.817Z,42.20
2018-08-31T14:47:28.344Z,42.47
2018-08-31T14:49:56.972Z,41.38
2018-08-31T14:52:25.497Z,40.24
2018-08-31T14:54:53.965Z,39.55
2018-08-31T14:57:22.390Z,39.74
2018-08-31T14:59:50.928Z,38.76
2018-08-31T15:02:19.500Z,39.42
2018-08-31T15:04:51.228Z,39.03
2018-08-31T15:07:19.762Z,39.39
2018-08-31T15:09:48.353Z,39.82
2018-08-31T15:12:16.916Z,39.23
2018-08-31T15:14:45.402Z,39.75
2018-08-31T15:17:13.965Z,39.16
2018-08-31T15:19:42.436Z,38.80
2018-08-31T15:22:11.046Z,39.46
2018-08-31T15:24:39.480Z,40.47
2018-08-31T15:27:07.976Z,41.36
2018-08-31T15:29:36.567Z,42.64
2018-08-31T15:32:05.377Z,43.47
2018-08-31T15:34:34.027Z,43.60
2018-08-31T15:37:02.540Z,43.51
2018-08-31T15:39:31.053Z,44.48
2018-08-31T15:41:59.592Z,45.29
2018-08-31T15:44:28.094Z,44.63
2018-08-31T15:46:57.187Z,44.53
2018-08-31T15:49:25.651Z,45.08
2018-08-31T15:51:54.142Z,45.54
2018-08-31T15:54:22.739Z,44.15
2018-08-31T15:56:51.301Z,43.46
2018-08-31T15:59:19.787Z,42.55
2018-08-31T16:01:49.064Z,41.71
2018-08-31T16:04:17.593Z,41.34
2018-08-31T16:06:46.020Z,40.32
2018-08-31T16:09:14.521Z,40.35
2018-08-31T16:11:43.115Z,39.83
2018-08-31T16:14:11.576Z,40.80
2018-08-31T16:16:40.175Z,40.67
2018-08-31T16:19:08.670Z,40.04
2018-08-31T16:25:02.179Z,40.43
2018-08-31T16:27:30.761Z,41.14
2018-08-31T16:29:59.288Z,42.36
2018-08-31T16:32:27.790Z,43.25
2018-08-31T16:34:56.388Z,43.78
2018-08-31T16:37:24.861Z,44.55
2018-08-31T16:39:53.503Z,44.81
2018-08-31T16:42:21.955Z,45.53
2018-08-31T16:44:50.505Z,46.75
2018-08-31T16:47:19.124Z,47.35
2018-08-31T16:49:47.665Z,47.88
2018-08-31T16:52:17.234Z,48.81
2018-08-31T16:54:45.779Z,48.53
2018-08-31T16:57:14.353Z,48.66
2018-08-31T16:59:42.814Z,48.47
2018-08-31T17:02:11.474Z,48.15
2018-08-31T17:04:39.901Z,48.77
2018-08-31T17:07:08.384Z,48.70
2018-08-31T17:09:36.864Z,48.89
2018-08-31T17:12:05.614Z,49.21
2018-08-31T17:14:34.148Z,50.12
2018-08-31T17:17:02.701Z,49.85
2018-08-31T17:19:31.192Z,50.49
2018-08-31T17:21:59.809Z,50.25
2018-08-31T17:24:28.567Z,50.58
2018-08-31T17:27:02.331Z,51.28
2018-08-31T17:29:40.893Z,51.12
2018-08-31T17:32:14.665Z,51.39
2018-08-31T17:34:48.342Z,52.42
2018-08-31T17:37:22.191Z,52.59
2018-08-31T17:39:50.724Z,52.83
2018-08-31T17:42:19.305Z,55.49
2018-08-31T17:44:47.939Z,57.38
2018-08-31T17:47:16.487Z,57.58
2018-08-31T17:49:45.045Z,59.27
2018-08-31T17:52:13.862Z,58.77
2018-08-31T17:54:42.474Z,59.73
2018-08-31T17:57:11.048Z,61.12
2018-08-31T17:59:39.721Z,60.40
2018-08-31T18:02:08.411Z,59.11
2018-08-31T18:04:37.149Z,58.78
2018-08-31T18:07:05.961Z,59.30
2018-08-31T18:09:34.485Z,61.30
2018-08-31T18:12:03.158Z,61.76
2018-08-31T18:14:31.707Z,62.82
2018-08-31T18:17:00.283Z,63.27
2018-08-31T18:19:28.768Z,64.69
2018-08-31T18:21:57.365Z,64.77
2018-08-31T18:24:26.667Z,65.04
2018-08-31T18:26:55.138Z,65.36
2018-08-31T18:29:24.893Z,64.17
2018-08-31T18:31:53.523Z,65.57
2018-08-31T18:34:22.096Z,63.54
2018-08-31T18:36:50.893Z,62.56
2018-08-31T18:39:19.482Z,62.22
2018-08-31T18:41:48.078Z,62.33
2018-08-31T18:44:16.706Z,61.67
2018-08-31T18:46:45.422Z,61.77
2018-08-31T18:49:13.927Z,61.62
2018-08-31T18:51:42.400Z,61.70
2018-08-31T18:54:11.116Z,61.80
2018-08-31T18:56:39.721Z,62.17
2018-08-31T18:59:08.320Z,62.87
2018-08-31T19:01:37.009Z,62.54
2018-08-31T19:04:05.550Z,63.13
2018-08-31T19:06:34.218Z,62.91
2018-08-31T19:09:02.886Z,63.98
2018-08-31T19:11:31.360Z,64.94
2018-08-31T19:14:00.145Z,64.81
2018-08-31T19:16:29.215Z,65.39
2018-08-31T19:18:57.787Z,67.25
2018-08-31T19:21:26.283Z,68.48
2018-08-31T19:23:54.861Z,69.51
2018-08-31T19:26:23.377Z,71.08
2018-08-31T19:28:51.842Z,71.49
2018-08-31T19:31:20.464Z,72.48
2018-08-31T19:33:49.041Z,72.65
2018-08-31T19:36:17.571Z,72.37
2018-08-31T19:39:12.271Z,72.61
2018-08-31T19:41:41.047Z,73.05
2018-08-31T19:44:09.809Z,73.01
2018-08-31T19:46:38.643Z,73.39
2018-08-31T19:49:07.336Z,73.73
2018-08-31T19:51:35.943Z,73.87
2018-08-31T19:57:53.263Z,74.78
2018-08-31T20:00:21.942Z,75.58
2018-08-31T20:02:51.122Z,75.63
2018-08-31T20:05:19.689Z,75.96
2018-08-31T20:07:48.316Z,76.45
2018-08-31T20:10:16.872Z,77.25
2018-08-31T20:12:46.183Z,77.30
2018-08-31T20:15:14.892Z,77.89
2018-08-31T20:17:43.765Z,78.06
2018-08-31T20:20:12.300Z,78.24
2018-08-31T20:22:40.869Z,78.46
2018-08-31T20:25:16.810Z,79.11
2018-08-31T20:27:45.478Z,79.51
2018-08-31T20:30:13.955Z,80.00
2018-08-31T20:32:42.742Z,79.86
2018-08-31T20:35:14.536Z,79.71
2018-08-31T20:37:43.038Z,79.54
2018-08-31T20:40:11.670Z,79.65
2018-08-31T20:43:21.924Z,79.82
2018-08-31T20:45:50.508Z,80.00
2018-08-31T20:48:19.108Z,80.82
2018-08-31T20:50:47.707Z,81.11
2018-08-31T20:53:16.326Z,81.02
2018-08-31T20:55:44.859Z,81.62
2018-08-31T20:58:13.480Z,81.80
2018-08-31T21:00:41.989Z,81.92
2018-08-31T21:03:11.440Z,82.01
2018-08-31T21:05:40.008Z,82.85
2018-08-31T21:08:08.648Z,83.13
2018-08-31T21:10:37.164Z,83.57
2018-08-31T21:13:05.670Z,83.58
2018-08-31T21:15:34.221Z,83.98
2018-08-31T21:18:02.800Z,83.58
2018-08-31T21:20:31.793Z,83.41
2018-08-31T21:23:00.473Z,83.83
2018-08-31T21:25:29.066Z,83.99
2018-08-31T21:27:57.556Z,84.65
2018-08-31T21:30:26.249Z,84.62
2018-08-31T21:32:54.954Z,84.93
2018-08-31T21:35:23.506Z,84.61
2018-08-31T21:37:52.185Z,84.92
2018-08-31T21:40:20.855Z,84.27
2018-08-31T21:42:49.361Z,84.70
2018-08-31T21:45:18.410Z,84.40
2018-08-31T21:47:46.866Z,84.40
2018-08-31T21:50:15.393Z,84.69
2018-08-31T21:52:44.191Z,84.44
2018-08-31T21:55:12.823Z,84.68
2018-08-31T21:57:41.781Z,84.49
2018-08-31T22:00:14.409Z,85.03
2018-08-31T22:02:43.035Z,84.79
2018-08-31T22:05:11.615Z,85.08
2018-08-31T22:07:40.298Z,85.65
2018-08-31T22:10:09.060Z,85.20
2018-08-31T22:12:37.718Z,85.42
2018-08-31T22:15:11.245Z,85.62
2018-08-31T22:17:40.184Z,85.16
2018-08-31T22:20:08.868Z,85.66
2018-08-31T22:22:37.606Z,85.42
2018-08-31T22:25:10.859Z,85.69
2018-08-31T22:27:39.359Z,85.65
2018-08-31T22:30:07.844Z,85.99
2018-08-31T22:32:44.941Z,85.87
2018-08-31T22:35:13.600Z,85.99
2018-08-31T22:37:42.244Z,85.82
2018-08-31T22:40:10.916Z,86.22
2018-08-31T22:42:39.480Z,85.86
2018-08-31T22:45:12.926Z,86.45
2018-08-31T22:47:42.350Z,87.14
2018-08-31T22:50:11.146Z,86.83
2018-08-31T22:52:39.936Z,87.35
2018-08-31T22:55:08.603Z,87.44
2018-08-31T22:57:37.082Z,87.39
2018-08-31T23:00:05.836Z,87.34
2018-08-31T23:02:34.356Z,86.83
2018-08-31T23:05:03.063Z,87.34
2018-08-31T23:07:36.835Z,87.58
2018-08-31T23:10:05.781Z,87.53
2018-08-31T23:12:57.181Z,87.88
2018-08-31T23:19:13.709Z,88.00
2018-08-31T23:21:42.329Z,87.70
2018-08-31T23:24:10.786Z,88.07
2018-08-31T23:26:39.325Z,88.35
2018-08-31T23:29:07.823Z,88.36
2018-08-31T23:31:36.339Z,87.84
2018-08-31T23:34:04.814Z,88.08
2018-08-31T23:40:07.729Z,88.41
2018-08-31T23:42:36.369Z,88.78
2018-08-31T23:45:04.935Z,88.61
2018-08-31T23:47:34.612Z,89.07
2018-08-31T23:50:03.196Z,88.83
2018-08-31T23:52:31.750Z,89.15
2018-08-31T23:55:00.220Z,89.39
2018-08-31T23:57:28.707Z,89.29
2018-08-31T23:59:57.287Z,88.70
